createdAt,value
2023-02-04T00:00:10.753Z,7.05
2023-02-04T00:02:38.126Z,6.03
2023-02-04T00:05:04.502Z,5.28
2023-02-04T00:07:30.501Z,7.63
2023-02-04T00:09:56.348Z,6.05
2023-02-04T00:12:22.481Z,5.93
2023-02-04T00:14:48.362Z,6.50
2023-02-04T00:17:14.185Z,7.13
2023-02-04T00:19:40.826Z,6.38
2023-02-04T00:22:07.899Z,6.07
2023-02-04T00:24:34.996Z,5.97
2023-02-04T00:27:01.005Z,7.07
2023-02-04T00:29:26.850Z,6.40
2023-02-04T00:31:52.693Z,6.25
2023-02-04T00:34:18.798Z,6.65
2023-02-04T00:36:47.644Z,6.45
2023-02-04T00:39:16.432Z,7.00
2023-02-04T00:41:42.281Z,6.68
2023-02-04T00:44:08.052Z,6.57
2023-02-04T00:46:33.923Z,6.45
2023-02-04T00:48:59.668Z,6.28
2023-02-04T00:51:25.558Z,5.70
2023-02-04T00:53:51.395Z,5.20
2023-02-04T00:56:17.114Z,7.13
2023-02-04T00:58:43.057Z,5.78
2023-02-04T01:01:08.959Z,6.18
2023-02-04T01:03:34.781Z,6.00
2023-02-04T01:06:00.569Z,7.28
2023-02-04T01:08:26.407Z,8.00
2023-02-04T01:10:52.311Z,6.82
2023-02-04T01:13:18.136Z,6.00
2023-02-04T01:15:46.179Z,7.20
2023-02-04T01:18:12.001Z,7.32
2023-02-04T01:20:37.816Z,7.13
2023-02-04T01:23:03.649Z,5.68
2023-02-04T01:25:29.417Z,6.22
2023-02-04T01:27:55.274Z,7.43
2023-02-04T01:30:21.116Z,6.95
2023-02-04T01:32:46.947Z,7.55
2023-02-04T01:35:12.739Z,7.30
2023-02-04T01:37:38.560Z,8.30
2023-02-04T01:40:05.277Z,7.85
2023-02-04T01:42:31.360Z,8.32
2023-02-04T01:44:58.035Z,6.43
2023-02-04T01:47:24.987Z,6.38
2023-02-04T01:49:53.770Z,8.80
2023-02-04T01:52:19.816Z,7.20
2023-02-04T01:54:45.721Z,6.85
2023-02-04T01:57:14.940Z,7.32
2023-02-04T01:59:44.324Z,8.00
2023-02-04T02:02:42.487Z,6.53
2023-02-04T02:05:11.441Z,7.97
2023-02-04T02:07:38.295Z,7.43
2023-02-04T02:10:06.473Z,7.03
2023-02-04T02:12:32.279Z,7.38
2023-02-04T02:14:59.419Z,7.97
2023-02-04T02:17:25.665Z,7.43
2023-02-04T02:19:51.647Z,8.63
2023-02-04T02:22:22.992Z,6.90
2023-02-04T02:24:48.730Z,7.15
2023-02-04T02:27:14.485Z,8.38
2023-02-04T02:29:41.575Z,6.97
2023-02-04T02:32:09.207Z,8.43
2023-02-04T02:34:35.598Z,8.02
2023-02-04T02:37:02.576Z,7.75
2023-02-04T02:39:28.773Z,8.10
2023-02-04T02:41:56.721Z,8.60
2023-02-04T02:44:24.252Z,8.48
2023-02-04T02:46:50.357Z,8.20
2023-02-04T02:49:18.751Z,6.25
2023-02-04T02:51:45.257Z,7.07
2023-02-04T02:54:31.208Z,7.50
2023-02-04T02:56:58.478Z,8.35
2023-02-04T02:59:25.219Z,7.22
2023-02-04T03:01:56.766Z,6.85
2023-02-04T03:04:23.957Z,7.95
2023-02-04T03:06:50.965Z,8.23
2023-02-04T03:09:17.594Z,8.27
2023-02-04T03:11:43.434Z,8.23
2023-02-04T03:14:09.309Z,8.05
2023-02-04T03:16:37.266Z,7.18
2023-02-04T03:19:05.909Z,9.25
2023-02-04T03:21:32.079Z,6.15
2023-02-04T03:23:58.180Z,8.38
2023-02-04T03:26:25.405Z,6.47
2023-02-04T03:28:53.227Z,7.60
2023-02-04T03:31:19.415Z,6.75
2023-02-04T03:33:45.403Z,7.93
2023-02-04T03:36:11.271Z,7.03
2023-02-04T03:38:37.296Z,8.13
2023-02-04T03:41:03.185Z,8.18
2023-02-04T03:43:28.979Z,7.53
2023-02-04T03:45:54.787Z,9.48
2023-02-04T03:48:20.611Z,7.25
2023-02-04T03:50:46.447Z,7.53
2023-02-04T03:53:12.383Z,8.77
2023-02-04T03:55:38.313Z,8.32
2023-02-04T03:58:04.762Z,8.98
2023-02-04T04:00:31.799Z,10.77
2023-02-04T04:02:58.662Z,7.78
2023-02-04T04:05:25.795Z,8.13
2023-02-04T04:07:51.632Z,7.90
2023-02-04T04:10:17.371Z,8.90
2023-02-04T04:12:43.178Z,8.73
2023-02-04T04:15:09.275Z,8.50
2023-02-04T04:17:35.171Z,9.00
2023-02-04T04:20:01.016Z,8.07
2023-02-04T04:22:26.937Z,8.98
2023-02-04T04:24:52.711Z,8.30
2023-02-04T04:27:18.652Z,7.65
2023-02-04T04:29:44.492Z,8.90
2023-02-04T04:32:10.704Z,8.18
2023-02-04T04:34:36.537Z,8.60
2023-02-04T04:37:02.339Z,8.85
2023-02-04T04:39:28.162Z,8.73
2023-02-04T04:41:53.976Z,9.30
2023-02-04T04:44:19.855Z,8.95
2023-02-04T04:46:45.763Z,8.02
2023-02-04T04:49:11.555Z,9.57
2023-02-04T04:51:37.304Z,9.63
2023-02-04T04:54:03.203Z,8.52
2023-02-04T04:56:29.419Z,9.40
2023-02-04T04:58:55.207Z,7.97
2023-02-04T05:01:21.928Z,9.75
2023-02-04T05:03:48.031Z,10.10
2023-02-04T05:06:14.349Z,7.88
2023-02-04T05:08:40.217Z,9.70
2023-02-04T05:11:06.168Z,10.60
2023-02-04T05:13:32.074Z,8.93
2023-02-04T05:15:57.932Z,7.20
2023-02-04T05:18:23.936Z,8.60
2023-02-04T05:20:49.779Z,7.28
2023-02-04T05:23:16.417Z,8.30
2023-02-04T05:25:42.401Z,9.18
2023-02-04T05:28:08.428Z,9.07
2023-02-04T05:30:34.692Z,8.43
2023-02-04T05:33:00.704Z,9.25
2023-02-04T05:35:26.546Z,9.57
2023-02-04T05:37:52.288Z,9.40
2023-02-04T05:40:18.079Z,8.88
2023-02-04T05:42:43.965Z,9.25
2023-02-04T05:45:14.585Z,10.73
2023-02-04T05:47:40.505Z,10.25
2023-02-04T05:50:07.187Z,10.70
2023-02-04T05:52:33.006Z,11.25
2023-02-04T05:54:58.785Z,9.98
2023-02-04T05:57:24.661Z,10.23
2023-02-04T05:59:50.496Z,10.18
2023-02-04T06:02:16.346Z,9.75
2023-02-04T06:04:43.981Z,10.85
2023-02-04T06:07:10.621Z,10.27
2023-02-04T06:09:36.549Z,10.30
2023-02-04T06:12:02.487Z,9.95
2023-02-04T06:14:28.348Z,9.07
2023-02-04T06:16:54.230Z,11.10
2023-02-04T06:19:20.165Z,10.98
2023-02-04T06:21:46.004Z,8.90
2023-02-04T06:24:11.906Z,9.65
2023-02-04T06:26:37.687Z,9.13
2023-02-04T06:29:03.685Z,9.98
2023-02-04T06:31:29.592Z,14.52
2023-02-04T06:33:55.505Z,8.55
2023-02-04T06:36:21.468Z,9.45
2023-02-04T06:38:47.393Z,8.10
2023-02-04T06:41:13.382Z,8.95
2023-02-04T06:43:39.266Z,8.25
2023-02-04T06:46:05.361Z,9.75
2023-02-04T06:48:31.396Z,9.25
2023-02-04T06:50:57.252Z,8.85
2023-02-04T06:53:23.252Z,8.35
2023-02-04T06:55:49.229Z,8.77
2023-02-04T06:58:15.137Z,9.27
2023-02-04T07:00:41.053Z,10.25
2023-02-04T07:03:07.037Z,10.57
2023-02-04T07:05:33.845Z,10.18
2023-02-04T07:07:59.952Z,9.55
2023-02-04T07:10:25.906Z,10.00
2023-02-04T07:12:52.012Z,9.57
2023-02-04T07:15:17.920Z,9.05
2023-02-04T07:17:43.827Z,9.75
2023-02-04T07:20:10.561Z,9.93
2023-02-04T07:22:36.770Z,9.65
2023-02-04T07:25:02.892Z,10.10
2023-02-04T07:27:28.874Z,11.43
2023-02-04T07:29:54.785Z,9.82
2023-02-04T07:32:20.764Z,10.57
2023-02-04T07:34:49.707Z,9.55
2023-02-04T07:37:15.745Z,11.48
2023-02-04T07:39:41.591Z,9.55
2023-02-04T07:42:07.968Z,10.82
2023-02-04T07:44:33.964Z,9.85
2023-02-04T07:47:00.141Z,10.20
2023-02-04T07:49:26.058Z,10.23
2023-02-04T07:51:52.048Z,10.23
2023-02-04T07:54:17.910Z,12.60
2023-02-04T07:56:43.650Z,10.70
2023-02-04T07:59:09.642Z,10.77
2023-02-04T08:01:35.603Z,10.95
2023-02-04T08:04:01.589Z,11.10
2023-02-04T08:06:27.585Z,12.48
2023-02-04T08:08:53.534Z,11.00
2023-02-04T08:11:19.479Z,11.70
2023-02-04T08:13:45.540Z,11.25
2023-02-04T08:16:12.011Z,11.82
2023-02-04T08:18:38.163Z,15.32
2023-02-04T08:21:05.715Z,12.15
2023-02-04T08:23:32.950Z,10.93
2023-02-04T08:25:59.414Z,12.07
2023-02-04T08:28:25.597Z,10.85
2023-02-04T08:30:51.498Z,11.05
2023-02-04T08:33:17.863Z,10.73
2023-02-04T08:35:43.979Z,11.63
2023-02-04T08:38:09.842Z,11.63
2023-02-04T08:40:36.117Z,10.95
2023-02-04T08:43:02.004Z,12.25
2023-02-04T08:45:28.251Z,11.95
2023-02-04T08:47:54.079Z,11.68
2023-02-04T08:50:19.978Z,11.48
2023-02-04T08:52:45.776Z,12.15
2023-02-04T08:55:11.913Z,10.45
2023-02-04T08:57:38.029Z,10.13
2023-02-04T09:00:04.188Z,8.52
2023-02-04T09:02:30.231Z,10.65
2023-02-04T09:04:56.179Z,10.80
2023-02-04T09:07:22.008Z,9.02
2023-02-04T09:09:47.973Z,11.80
2023-02-04T09:12:13.976Z,9.25
2023-02-04T09:14:39.848Z,8.05
2023-02-04T09:17:06.934Z,8.30
2023-02-04T09:19:32.883Z,9.25
2023-02-04T09:21:58.886Z,8.50
2023-02-04T09:24:25.038Z,9.90
2023-02-04T09:26:51.149Z,9.75
2023-02-04T09:29:17.383Z,8.70
2023-02-04T09:31:43.484Z,10.38
2023-02-04T09:34:10.125Z,9.27
2023-02-04T09:36:37.885Z,9.77
2023-02-04T09:39:09.673Z,8.63
2023-02-04T09:41:39.939Z,10.30
2023-02-04T09:44:14.066Z,10.23
2023-02-04T09:46:45.858Z,10.80
2023-02-04T09:49:11.701Z,8.38
2023-02-04T09:51:37.895Z,8.80
2023-02-04T09:54:12.823Z,7.72
2023-02-04T09:56:39.179Z,9.15
2023-02-04T09:59:19.230Z,8.80
2023-02-04T10:02:20.232Z,7.43
2023-02-04T10:04:46.432Z,5.95
2023-02-04T10:07:12.971Z,7.97
2023-02-04T10:09:40.246Z,6.72
2023-02-04T10:12:07.044Z,6.70
2023-02-04T10:14:33.331Z,7.05
2023-02-04T10:17:01.067Z,5.55
2023-02-04T10:19:30.518Z,6.05
2023-02-04T10:21:57.054Z,6.93
2023-02-04T10:24:25.766Z,6.05
2023-02-04T10:26:52.479Z,6.40
2023-02-04T10:29:21.445Z,6.78
2023-02-04T10:31:49.504Z,7.78
2023-02-04T10:34:19.978Z,8.10
2023-02-04T10:36:57.075Z,7.57
2023-02-04T10:39:27.627Z,9.10
2023-02-04T10:41:54.744Z,8.60
2023-02-04T10:44:28.209Z,8.55
2023-02-04T10:47:15.578Z,8.93
2023-02-04T10:49:50.772Z,6.72
2023-02-04T10:52:21.000Z,5.93
2023-02-04T10:54:47.292Z,6.22
2023-02-04T10:57:23.454Z,7.78
2023-02-04T10:59:55.200Z,7.05
2023-02-04T11:02:50.648Z,6.82
2023-02-04T11:05:19.914Z,6.88
2023-02-04T11:07:47.362Z,7.30
2023-02-04T11:10:16.021Z,7.70
2023-02-04T11:12:54.082Z,6.78
2023-02-04T11:15:43.835Z,7.07
2023-02-04T11:18:11.472Z,6.97
2023-02-04T11:20:40.003Z,6.13
2023-02-04T11:23:31.964Z,5.28
2023-02-04T11:26:18.519Z,4.80
2023-02-04T11:28:49.888Z,6.15
2023-02-04T11:31:19.053Z,4.93
2023-02-04T11:33:45.806Z,5.28
2023-02-04T11:36:14.045Z,5.85
2023-02-04T11:38:45.544Z,6.88
2023-02-04T11:41:24.258Z,5.65
2023-02-04T11:43:52.459Z,5.63
2023-02-04T11:46:18.879Z,5.35
2023-02-04T11:48:44.876Z,5.95
2023-02-04T11:51:14.435Z,5.85
2023-02-04T11:53:40.572Z,6.53
2023-02-04T11:56:06.559Z,5.65
2023-02-04T11:58:32.912Z,5.28
2023-02-04T12:00:58.990Z,5.05
2023-02-04T12:03:30.198Z,5.78
2023-02-04T12:05:58.000Z,5.22
2023-02-04T12:08:25.185Z,4.45
2023-02-04T12:11:04.745Z,5.55
2023-02-04T12:13:31.638Z,5.78
2023-02-04T12:16:00.592Z,5.13
2023-02-04T12:18:27.163Z,6.25
2023-02-04T12:20:54.149Z,5.03
2023-02-04T12:23:20.362Z,5.05
2023-02-04T12:25:46.259Z,5.07
2023-02-04T12:28:12.421Z,4.57
2023-02-04T12:30:38.688Z,6.28
2023-02-04T12:33:04.604Z,6.18
2023-02-04T12:35:30.659Z,5.40
2023-02-04T12:37:57.219Z,5.85
2023-02-04T12:40:23.113Z,5.50
2023-02-04T12:42:49.150Z,6.15
2023-02-04T12:45:16.601Z,9.48
2023-02-04T12:47:43.067Z,9.75
2023-02-04T12:50:10.994Z,8.23
2023-02-04T12:52:38.280Z,5.95
2023-02-04T12:55:06.300Z,8.43
2023-02-04T12:57:33.507Z,7.53
2023-02-04T13:00:00.765Z,5.63
2023-02-04T13:02:27.563Z,5.38
2023-02-04T13:04:53.718Z,5.35
2023-02-04T13:07:20.876Z,4.45
2023-02-04T13:09:47.617Z,4.95
2023-02-04T13:12:13.950Z,4.18
2023-02-04T13:14:41.165Z,5.22
2023-02-04T13:17:07.769Z,8.00
2023-02-04T13:19:33.694Z,5.70
2023-02-04T13:21:59.910Z,6.68
2023-02-04T13:24:26.103Z,5.50
2023-02-04T13:26:51.940Z,5.75
2023-02-04T13:29:18.180Z,5.90
2023-02-04T13:31:44.661Z,7.00
2023-02-04T13:34:10.736Z,8.43
2023-02-04T13:36:36.681Z,6.32
2023-02-04T13:39:02.581Z,5.28
2023-02-04T13:41:28.628Z,6.22
2023-02-04T13:43:55.024Z,7.18
2023-02-04T13:46:21.037Z,7.13
2023-02-04T13:48:47.437Z,8.27
2023-02-04T13:51:13.569Z,6.25
2023-02-04T13:53:39.966Z,6.22
2023-02-04T13:56:06.191Z,5.05
2023-02-04T13:58:32.032Z,5.53
2023-02-04T14:00:58.279Z,7.30
2023-02-04T14:03:24.850Z,8.23
2023-02-04T14:05:51.183Z,7.50
2023-02-04T14:08:17.180Z,6.63
2023-02-04T14:10:43.086Z,7.93
2023-02-04T14:13:08.964Z,11.30
2023-02-04T14:15:36.950Z,9.40
2023-02-04T14:18:05.644Z,7.28
2023-02-04T14:20:31.977Z,10.45
2023-02-04T14:22:58.029Z,8.15
2023-02-04T14:25:24.063Z,6.93
2023-02-04T14:27:50.282Z,7.13
2023-02-04T14:30:22.958Z,6.57
2023-02-04T14:32:48.796Z,7.32
2023-02-04T14:35:15.996Z,6.97
2023-02-04T14:37:41.957Z,7.55
2023-02-04T14:40:08.595Z,9.00
2023-02-04T14:42:35.174Z,6.20
2023-02-04T14:45:04.625Z,6.43
2023-02-04T14:47:37.579Z,6.60
2023-02-04T14:50:05.059Z,6.72
2023-02-04T14:52:30.843Z,7.68
2023-02-04T14:54:56.627Z,5.60
2023-02-04T14:57:22.495Z,6.07
2023-02-04T14:59:48.372Z,11.80
2023-02-04T15:02:17.528Z,13.25
2023-02-04T15:04:44.126Z,10.27
2023-02-04T15:07:11.362Z,10.10
2023-02-04T15:09:37.312Z,14.90
2023-02-04T15:12:03.792Z,10.35
2023-02-04T15:14:29.889Z,8.40
2023-02-04T15:16:55.750Z,7.28
2023-02-04T15:19:22.991Z,5.70
2023-02-04T15:21:49.099Z,7.22
2023-02-04T15:24:15.004Z,7.65
2023-02-04T15:26:40.810Z,6.75
2023-02-04T15:29:06.765Z,5.57
2023-02-04T15:31:33.001Z,6.35
2023-02-04T15:33:59.962Z,6.35
2023-02-04T15:36:25.897Z,6.07
2023-02-04T15:38:51.755Z,5.72
2023-02-04T15:41:17.750Z,7.07
2023-02-04T15:43:43.709Z,6.63
2023-02-04T15:46:09.594Z,5.32
2023-02-04T15:48:35.483Z,5.15
2023-02-04T15:51:01.600Z,5.05
2023-02-04T15:53:27.508Z,6.13
2023-02-04T15:55:53.355Z,5.25
2023-02-04T15:58:19.170Z,7.60
2023-02-04T16:00:48.349Z,6.43
2023-02-04T16:03:14.120Z,7.00
2023-02-04T16:05:40.072Z,7.20
2023-02-04T16:08:05.930Z,8.38
2023-02-04T16:10:31.937Z,21.45
2023-02-04T16:12:58.095Z,22.05
2023-02-04T16:15:24.482Z,18.70
2023-02-04T16:17:50.604Z,33.92
2023-02-04T16:20:17.790Z,40.42
2023-02-04T16:22:43.701Z,17.55
2023-02-04T16:25:09.779Z,22.13
2023-02-04T16:27:35.944Z,28.52
2023-02-04T16:30:03.006Z,22.98
2023-02-04T16:32:29.315Z,18.42
2023-02-04T16:34:56.279Z,18.38
2023-02-04T16:37:22.311Z,17.65
2023-02-04T16:39:50.949Z,12.40
2023-02-04T16:42:17.997Z,11.93
2023-02-04T16:44:44.130Z,12.23
2023-02-04T16:47:11.299Z,10.98
2023-02-04T16:49:37.605Z,10.70
2023-02-04T16:52:04.639Z,11.05
2023-02-04T16:54:31.533Z,10.60
2023-02-04T16:56:59.627Z,11.27
2023-02-04T16:59:27.294Z,11.40
2023-02-04T17:01:55.943Z,12.63
2023-02-04T17:04:21.959Z,12.32
2023-02-04T17:06:47.882Z,10.52
2023-02-04T17:09:13.845Z,10.15
2023-02-04T17:11:40.362Z,11.82
2023-02-04T17:14:10.096Z,10.68
2023-02-04T17:16:36.511Z,10.65
2023-02-04T17:19:02.932Z,11.90
2023-02-04T17:21:30.219Z,12.77
2023-02-04T17:24:01.950Z,14.40
2023-02-04T17:26:36.420Z,14.35
2023-02-04T17:29:22.437Z,14.70
2023-02-04T17:34:14.673Z,12.95
2023-02-04T17:36:40.501Z,15.02
2023-02-04T17:39:06.899Z,14.07
2023-02-04T17:41:32.845Z,14.27
2023-02-04T17:43:59.386Z,11.90
2023-02-04T17:46:25.577Z,16.10
2023-02-04T17:48:51.469Z,14.68
2023-02-04T17:51:17.523Z,14.32
2023-02-04T17:53:43.535Z,13.18
2023-02-04T17:56:11.477Z,12.82
2023-02-04T17:58:37.794Z,12.80
2023-02-04T18:01:10.904Z,12.02
2023-02-04T18:03:37.244Z,11.63
2023-02-04T18:06:26.238Z,11.90
2023-02-04T18:08:52.381Z,10.73
2023-02-04T18:11:27.346Z,11.07
2023-02-04T18:13:58.875Z,11.48
2023-02-04T18:16:29.649Z,11.90
2023-02-04T18:19:20.197Z,14.23
2023-02-04T18:21:47.507Z,12.77
2023-02-04T18:24:21.518Z,12.73
2023-02-04T18:26:52.546Z,11.88
2023-02-04T18:29:35.403Z,11.48
2023-02-04T18:32:03.390Z,12.65
2023-02-04T18:34:39.808Z,13.75
2023-02-04T18:37:31.779Z,12.77
2023-02-04T18:40:09.882Z,13.45
2023-02-04T18:42:44.176Z,15.52
2023-02-04T18:45:28.340Z,15.75
2023-02-04T18:48:20.437Z,15.55
2023-02-04T18:50:50.909Z,13.57
2023-02-04T18:53:22.541Z,18.40
2023-02-04T18:55:54.411Z,15.13
2023-02-04T18:58:33.645Z,15.00
2023-02-04T19:01:03.252Z,12.50
2023-02-04T19:03:32.761Z,10.65
2023-02-04T19:06:03.899Z,10.75
2023-02-04T19:08:42.404Z,10.43
2023-02-04T19:11:32.539Z,10.60
2023-02-04T19:13:58.768Z,10.02
2023-02-04T19:16:28.498Z,10.85
2023-02-04T19:18:55.905Z,13.57
2023-02-04T19:21:31.202Z,13.38
2023-02-04T19:24:22.736Z,14.15
2023-02-04T19:26:59.932Z,13.07
2023-02-04T19:29:41.594Z,13.25
2023-02-04T19:32:36.223Z,13.02
2023-02-04T19:35:16.327Z,14.90
2023-02-04T19:37:43.520Z,14.02
2023-02-04T19:40:23.375Z,14.30
2023-02-04T19:42:52.237Z,14.48
2023-02-04T19:45:21.461Z,13.52
2023-02-04T19:47:49.190Z,14.85
2023-02-04T19:50:20.426Z,14.70
2023-02-04T19:52:49.267Z,17.73
2023-02-04T19:55:28.684Z,19.40
2023-02-04T19:58:02.455Z,19.33
2023-02-04T20:00:34.454Z,21.63
2023-02-04T20:03:01.464Z,25.42
2023-02-04T20:05:31.954Z,34.75
2023-02-04T20:08:36.329Z,32.80
2023-02-04T20:11:32.664Z,25.63
2023-02-04T20:14:13.695Z,23.45
2023-02-04T20:16:46.706Z,22.08
2023-02-04T20:19:20.427Z,24.48
2023-02-04T20:22:15.939Z,21.73
2023-02-04T20:24:43.622Z,19.63
2023-02-04T20:27:27.591Z,18.05
2023-02-04T20:30:21.577Z,21.20
2023-02-04T20:32:53.560Z,21.05
2023-02-04T20:35:19.906Z,22.20
2023-02-04T20:37:52.128Z,21.73
2023-02-04T20:40:26.432Z,22.65
2023-02-04T20:43:13.411Z,24.45
2023-02-04T20:46:14.803Z,22.48
2023-02-04T20:48:42.692Z,21.38
2023-02-04T20:51:23.491Z,23.05
2023-02-04T20:53:52.917Z,22.75
2023-02-04T20:56:28.668Z,20.92
2023-02-04T20:59:16.033Z,21.33
2023-02-04T21:01:45.957Z,21.40
2023-02-04T21:04:21.428Z,22.38
2023-02-04T21:06:50.392Z,20.40
2023-02-04T21:09:33.554Z,20.13
2023-02-04T21:12:01.692Z,18.15
2023-02-04T21:14:28.805Z,17.95
2023-02-04T21:16:55.619Z,17.17
2023-02-04T21:19:23.982Z,17.33
2023-02-04T21:21:49.946Z,18.45
2023-02-04T21:24:15.884Z,18.73
2023-02-04T21:26:42.092Z,20.00
2023-02-04T21:29:08.115Z,20.73
2023-02-04T21:31:34.321Z,19.17
2023-02-04T21:34:00.447Z,18.98
2023-02-04T21:36:29.714Z,18.50
2023-02-04T21:38:57.400Z,18.23
2023-02-04T21:41:24.785Z,19.02
2023-02-04T21:43:51.274Z,19.15
2023-02-04T21:46:18.056Z,18.00
2023-02-04T21:48:44.466Z,17.67
2023-02-04T21:51:11.834Z,17.67
2023-02-04T21:53:38.343Z,18.73
2023-02-04T21:56:06.084Z,18.50
2023-02-04T21:58:32.054Z,19.35
2023-02-04T22:00:57.966Z,18.90
2023-02-04T22:03:23.959Z,19.05
2023-02-04T22:05:49.855Z,17.88
2023-02-04T22:08:15.794Z,18.67
2023-02-04T22:10:41.694Z,18.33
2023-02-04T22:13:07.482Z,18.30
2023-02-04T22:15:33.668Z,18.98
2023-02-04T22:17:59.832Z,19.10
2023-02-04T22:20:25.864Z,20.77
2023-02-04T22:22:52.042Z,19.90
2023-02-04T22:25:20.268Z,19.98
2023-02-04T22:27:46.158Z,18.48
2023-02-04T22:30:13.272Z,19.17
2023-02-04T22:32:40.036Z,21.45
2023-02-04T22:35:07.400Z,18.58
2023-02-04T22:37:33.706Z,17.05
2023-02-04T22:39:59.638Z,16.17
2023-02-04T22:42:25.465Z,16.00
2023-02-04T22:44:51.378Z,15.68
2023-02-04T22:47:17.289Z,14.73
2023-02-04T22:49:43.176Z,14.93
2023-02-04T22:52:09.123Z,15.27
2023-02-04T22:54:36.200Z,15.23
2023-02-04T22:57:02.093Z,15.07
2023-02-04T22:59:27.991Z,15.13
2023-02-04T23:01:55.038Z,15.23
2023-02-04T23:04:21.057Z,15.30
2023-02-04T23:06:47.443Z,15.23
2023-02-04T23:09:14.004Z,15.82
2023-02-04T23:11:39.931Z,15.75
2023-02-04T23:14:05.784Z,14.85
2023-02-04T23:16:31.728Z,14.07
2023-02-04T23:18:57.699Z,16.33
2023-02-04T23:21:23.679Z,15.82
2023-02-04T23:23:50.480Z,15.40
2023-02-04T23:26:16.455Z,15.65
2023-02-04T23:28:42.812Z,15.27
2023-02-04T23:31:08.843Z,16.20
2023-02-04T23:33:34.751Z,16.52
2023-02-04T23:36:00.770Z,14.98
2023-02-04T23:38:26.646Z,15.07
2023-02-04T23:40:52.619Z,14.55
2023-02-04T23:43:19.173Z,15.70
2023-02-04T23:45:45.401Z,13.93
2023-02-04T23:48:11.599Z,15.57
2023-02-04T23:50:37.520Z,15.85
2023-02-04T23:53:03.546Z,16.52
2023-02-04T23:55:29.324Z,16.27
2023-02-04T23:57:55.305Z,14.90
